Time;durP1;ratioP1;P1;durP2;ratioP2;P2;SDS_P1;SDS_P2;PMS_P1;PMS_P2;Temp;Humidity;BMP_temperature;BMP_pressure;BME280_temperature;BME280_humidity;BME280_pressure;Samples;Min_cycle;Max_cycle;Signal;HPM_P1;HPM_P2
2022/07/24 00:01:35;;;;;;;7.88;6.20;;;;;;;19.81;66.16;101658.34;3595456;39;20096;-63
2022/07/24 00:04:04;;;;;;;6.65;6.00;;;;;;;19.75;66.24;101659.75;3592697;39;20058;-64
2022/07/24 00:06:31;;;;;;;6.50;5.90;;;;;;;19.71;66.00;101656.44;3593038;39;20623;-64
2022/07/24 00:08:56;;;;;;;6.88;6.03;;;;;;;19.68;66.08;101653.97;3594848;39;20374;-64
2022/07/24 00:11:22;;;;;;;6.60;5.80;;;;;;;19.48;66.62;101622.94;3595129;39;20063;-64
2022/07/24 00:13:48;;;;;;;7.78;5.78;;;;;;;19.67;66.14;101651.38;3592156;39;20067;-63
2022/07/24 00:16:14;;;;;;;10.25;5.97;;;;;;;19.66;66.05;101655.09;3593873;39;20051;-64
2022/07/24 00:18:39;;;;;;;6.13;5.53;;;;;;;19.65;66.10;101647.91;3595011;39;20051;-63
2022/07/24 00:21:05;;;;;;;6.97;5.70;;;;;;;19.64;66.52;101644.34;3594140;39;20055;-63
2022/07/24 00:23:31;;;;;;;7.93;5.80;;;;;;;19.58;65.83;101633.06;3594526;39;20050;-63
2022/07/24 00:25:57;;;;;;;6.82;5.45;;;;;;;19.63;65.40;101638.97;3591922;39;20079;-63
2022/07/24 00:28:23;;;;;;;6.18;5.30;;;;;;;19.62;65.69;101639.97;3592746;39;20109;-64
2022/07/24 00:30:49;;;;;;;6.50;5.82;;;;;;;19.62;65.90;101643.56;3594009;39;20059;-63
2022/07/24 00:33:14;;;;;;;6.22;5.45;;;;;;;19.61;65.19;101641.84;3592980;39;20047;-63
2022/07/24 00:35:40;;;;;;;6.22;5.63;;;;;;;19.59;64.84;101638.38;3595588;39;20052;-64
2022/07/24 00:38:06;;;;;;;6.30;5.70;;;;;;;19.58;65.88;101644.84;3593541;39;20082;-63
2022/07/24 00:40:32;;;;;;;6.35;5.65;;;;;;;19.56;65.06;101644.09;3595888;39;20061;-64
2022/07/24 00:42:58;;;;;;;8.23;6.07;;;;;;;19.55;66.10;101647.81;3593718;39;20067;-64
2022/07/24 00:45:24;;;;;;;6.60;5.60;;;;;;;19.47;65.77;101631.25;3595104;39;20412;-63
2022/07/24 00:47:50;;;;;;;8.15;6.20;;;;;;;19.51;66.16;101643.66;3591844;39;20052;-64
2022/07/24 00:50:17;;;;;;;6.60;5.53;;;;;;;19.51;65.79;101646.38;3590183;39;20396;-64
2022/07/24 00:52:44;;;;;;;7.28;5.70;;;;;;;19.54;65.49;101651.56;3590611;39;20055;-63
2022/07/24 00:55:12;;;;;;;7.72;5.70;;;;;;;19.54;65.17;101637.94;3592588;39;20075;-64
2022/07/24 00:57:38;;;;;;;5.90;5.38;;;;;;;19.53;65.56;101644.34;3594239;39;20112;-64
2022/07/24 01:00:06;;;;;;;7.07;5.80;;;;;;;19.55;65.08;101656.00;3592735;39;20051;-63
2022/07/24 01:02:34;;;;;;;7.85;5.63;;;;;;;19.52;65.22;101636.31;3595128;39;20043;-64
2022/07/24 01:05:00;;;;;;;6.82;6.07;;;;;;;19.53;65.27;101638.03;3593371;39;20051;-63
2022/07/24 01:07:26;;;;;;;6.95;5.97;;;;;;;19.52;65.81;101636.31;3593649;39;20059;-63
2022/07/24 01:09:52;;;;;;;7.25;6.40;;;;;;;19.52;65.04;101644.50;3594265;39;20385;-63
2022/07/24 01:12:18;;;;;;;7.53;6.45;;;;;;;19.50;65.58;101633.72;3593684;39;20322;-63
2022/07/24 01:14:44;;;;;;;8.95;6.43;;;;;;;19.53;64.72;101638.91;3594432;39;20134;-63
2022/07/24 01:17:11;;;;;;;7.95;6.50;;;;;;;19.56;65.44;101633.19;3593782;39;20059;-63
2022/07/24 01:19:37;;;;;;;8.15;6.20;;;;;;;19.57;64.65;101623.13;3593180;39;20685;-63
2022/07/24 01:22:03;;;;;;;8.68;6.90;;;;;;;19.62;63.91;101620.88;3593534;39;20056;-63
2022/07/24 01:24:29;;;;;;;8.43;6.60;;;;;;;19.61;64.39;101625.47;3592240;39;20051;-63
2022/07/24 01:26:54;;;;;;;8.50;6.47;;;;;;;19.56;63.73;101630.44;3592173;39;20095;-62
2022/07/24 01:29:20;;;;;;;7.35;6.18;;;;;;;19.53;64.72;101633.44;3590778;39;20425;-63
2022/07/24 01:31:46;;;;;;;8.13;6.40;;;;;;;19.54;64.31;101637.94;3593953;39;20057;-62
2022/07/24 01:34:12;;;;;;;8.70;6.80;;;;;;;19.59;63.92;101640.25;3593024;39;20061;-63
2022/07/24 01:36:39;;;;;;;7.60;6.47;;;;;;;19.58;65.18;101636.66;3592859;39;20055;-63
2022/07/24 01:39:05;;;;;;;6.75;6.13;;;;;;;19.58;64.77;101636.66;3592260;39;20051;-63
2022/07/24 01:41:30;;;;;;;7.97;6.70;;;;;;;19.54;63.92;101626.16;3593927;39;20098;-63
2022/07/24 01:43:56;;;;;;;8.77;6.65;;;;;;;19.47;64.49;101636.69;3595149;39;20144;-63
2022/07/24 01:46:22;;;;;;;10.63;7.28;;;;;;;19.43;64.73;101632.53;3591056;39;20071;-63
2022/07/24 01:48:47;;;;;;;7.60;6.90;;;;;;;19.38;65.03;101629.34;3593038;39;20068;-63
2022/07/24 01:51:13;;;;;;;8.60;7.10;;;;;;;19.38;65.25;101624.75;3591183;39;20070;-63
2022/07/24 01:53:38;;;;;;;7.80;6.90;;;;;;;18.92;65.16;101559.69;3595211;39;20306;-63
2022/07/24 01:56:04;;;;;;;10.75;7.25;;;;;;;19.28;65.21;101620.22;3594537;39;20059;-63
2022/07/24 01:58:30;;;;;;;9.13;7.30;;;;;;;19.15;65.82;101607.63;3594688;39;20196;-63
2022/07/24 02:00:55;;;;;;;9.35;7.88;;;;;;;18.45;65.83;101485.59;3595202;39;20055;-63
2022/07/24 02:03:21;;;;;;;9.07;8.18;;;;;;;19.11;66.27;101605.31;3591990;39;20487;-63
2022/07/24 02:05:47;;;;;;;12.07;7.95;;;;;;;19.13;66.51;101622.41;3593028;39;20062;-63
2022/07/24 02:08:13;;;;;;;10.75;8.00;;;;;;;19.04;66.31;101602.25;3589601;39;20120;-63
2022/07/24 02:10:39;;;;;;;10.48;8.65;;;;;;;19.06;66.79;101611.16;3594814;39;20047;-63
2022/07/24 02:13:06;;;;;;;10.55;8.23;;;;;;;18.36;67.04;101497.25;3594493;39;20050;-63
2022/07/24 02:15:32;;;;;;;9.95;8.43;;;;;;;18.88;67.03;101586.34;3594159;39;20364;-64
2022/07/24 02:18:01;;;;;;;9.85;8.52;;;;;;;19.01;67.18;101605.22;3594818;39;20108;-63
2022/07/24 02:20:28;;;;;;;10.07;8.07;;;;;;;18.97;66.75;101622.84;3595637;39;20148;-63
2022/07/24 02:22:54;;;;;;;10.48;7.90;;;;;;;18.91;67.85;101613.31;3592767;39;20055;-63
2022/07/24 02:25:20;;;;;;;11.93;9.73;;;;;;;18.74;67.45;101598.41;3592614;39;20067;-63
2022/07/24 02:27:46;;;;;;;9.95;8.82;;;;;;;18.89;67.83;101607.13;3594715;39;20062;-64
2022/07/24 02:30:17;;;;;;;10.52;9.20;;;;;;;18.86;67.47;101617.44;3591129;39;20130;-63
2022/07/24 02:32:42;;;;;;;10.13;9.13;;;;;;;18.81;67.92;101614.22;3593838;39;20080;-65
2022/07/24 02:35:09;;;;;;;13.00;9.50;;;;;;;18.76;68.11;101623.66;3590036;39;20070;-65
2022/07/24 02:37:38;;;;;;;10.00;9.00;;;;;;;18.76;68.17;101622.78;3592791;39;20402;-65
2022/07/24 02:40:07;;;;;;;9.80;8.77;;;;;;;18.70;69.21;101613.22;3592340;39;20574;-64
2022/07/24 02:42:32;;;;;;;10.02;9.02;;;;;;;18.52;68.58;101592.97;3593331;39;20058;-64
2022/07/24 02:44:58;;;;;;;9.98;8.45;;;;;;;18.62;69.42;101620.34;3595080;39;20059;-64
2022/07/24 02:47:23;;;;;;;10.27;8.68;;;;;;;18.54;69.88;101629.97;3593231;39;20077;-64
2022/07/24 02:49:49;;;;;;;13.52;9.27;;;;;;;18.54;70.21;101634.56;3594770;39;20068;-65
2022/07/24 02:52:15;;;;;;;10.32;9.25;;;;;;;18.54;69.49;101640.00;3591420;39;20051;-65
2022/07/24 02:54:40;;;;;;;14.10;9.73;;;;;;;18.41;69.79;101612.06;3592863;39;20056;-65
2022/07/24 02:57:06;;;;;;;11.25;9.70;;;;;;;18.47;69.82;101622.47;3591667;39;20082;-64
2022/07/24 02:59:32;;;;;;;11.52;9.27;;;;;;;18.48;69.38;101633.19;3593872;39;20385;-65
2022/07/24 03:01:58;;;;;;;13.10;10.60;;;;;;;18.43;70.41;101626.44;3594393;39;20257;-65
2022/07/24 03:04:23;;;;;;;11.23;10.02;;;;;;;18.39;69.34;101627.66;3593749;39;20700;-65
2022/07/24 03:06:49;;;;;;;13.25;10.40;;;;;;;18.37;69.43;101624.22;3593038;39;20368;-65
2022/07/24 03:09:15;;;;;;;12.70;10.70;;;;;;;18.40;69.75;101626.69;3593913;39;20413;-63
2022/07/24 03:11:41;;;;;;;13.30;10.73;;;;;;;18.38;69.06;101623.22;3593450;39;20055;-64
2022/07/24 03:14:06;;;;;;;15.13;11.07;;;;;;;18.29;69.77;101617.50;3593475;39;20371;-63
2022/07/24 03:16:32;;;;;;;13.02;11.73;;;;;;;18.05;69.83;101570.56;3593278;39;20063;-64
2022/07/24 03:18:58;;;;;;;12.18;10.80;;;;;;;18.24;70.71;101625.22;3594239;39;20118;-64
2022/07/24 03:21:23;;;;;;;16.30;13.00;;;;;;;18.19;69.96;101624.72;3592594;39;20067;-63
2022/07/24 03:23:49;;;;;;;13.77;11.60;;;;;;;18.18;70.72;101624.84;3593425;39;20067;-64
2022/07/24 03:26:14;;;;;;;12.55;11.25;;;;;;;18.09;71.33;101619.16;3593461;39;20424;-63
2022/07/24 03:28:40;;;;;;;13.60;12.00;;;;;;;18.06;70.92;101599.50;3595166;39;20066;-64
2022/07/24 03:31:06;;;;;;;13.75;11.40;;;;;;;18.05;70.84;101619.53;3593244;39;20099;-63
2022/07/24 03:33:31;;;;;;;13.55;12.13;;;;;;;18.02;71.92;101617.06;3584576;39;20089;-63
2022/07/24 03:35:57;;;;;;;14.52;12.50;;;;;;;17.92;71.60;101613.31;3595431;39;20066;-62
2022/07/24 03:38:23;;;;;;;15.77;13.23;;;;;;;17.94;71.75;101616.81;3592024;39;20108;-62
2022/07/24 03:40:48;;;;;;;14.38;12.30;;;;;;;17.92;72.12;101621.47;3593980;39;20625;-61
2022/07/24 03:43:14;;;;;;;14.60;13.00;;;;;;;17.83;72.93;101606.78;3591462;39;20387;-62
2022/07/24 03:45:39;;;;;;;15.95;13.77;;;;;;;17.90;72.66;101626.19;3593901;39;20364;-63
2022/07/24 03:48:05;;;;;;;16.42;14.43;;;;;;;17.54;72.43;101557.44;3593799;39;20280;-62
2022/07/24 03:50:31;;;;;;;16.25;14.55;;;;;;;17.38;72.84;101533.31;3593541;39;20128;-62
2022/07/24 03:52:57;;;;;;;18.02;15.02;;;;;;;17.81;73.29;101608.75;3593303;39;20318;-62
2022/07/24 03:55:22;;;;;;;17.27;15.40;;;;;;;17.79;72.72;101600.75;3593040;39;20803;-62
2022/07/24 03:57:48;;;;;;;18.00;15.35;;;;;;;17.73;73.08;101598.47;3596258;39;20079;-61
2022/07/24 04:00:14;;;;;;;18.75;15.63;;;;;;;17.78;73.36;101607.16;3592437;39;20456;-61
2022/07/24 04:02:41;;;;;;;18.30;16.10;;;;;;;17.77;74.05;101605.41;3594658;39;20083;-61
2022/07/24 04:05:08;;;;;;;17.63;15.73;;;;;;;17.75;74.17;101610.06;3593896;39;20047;-61
2022/07/24 04:07:38;;;;;;;20.42;17.40;;;;;;;17.77;73.90;101605.41;3593212;39;20394;-61
2022/07/24 04:10:06;;;;;;;19.58;16.92;;;;;;;17.69;74.38;101599.69;3593011;39;20309;-61
2022/07/24 04:12:33;;;;;;;20.02;17.90;;;;;;;17.70;74.08;101604.16;3594282;39;21730;-61
2022/07/24 04:14:59;;;;;;;22.17;18.00;;;;;;;17.74;74.00;101605.63;3594207;39;20124;-61
2022/07/24 04:17:25;;;;;;;21.30;18.13;;;;;;;17.75;74.22;101607.34;3594644;39;20184;-61
2022/07/24 04:19:50;;;;;;;21.48;18.65;;;;;;;17.80;74.73;101602.47;3593826;39;20314;-61
2022/07/24 04:22:16;;;;;;;22.80;20.40;;;;;;;17.53;74.52;101556.53;3592887;39;20055;-61
2022/07/24 04:24:42;;;;;;;23.98;20.60;;;;;;;17.51;74.63;101547.66;3595452;39;20351;-61
2022/07/24 04:27:08;;;;;;;23.85;20.58;;;;;;;17.84;74.79;101608.50;3595770;39;20124;-61
2022/07/24 04:29:34;;;;;;;24.52;20.45;;;;;;;17.86;74.32;101601.97;3592674;39;20070;-61
2022/07/24 04:31:59;;;;;;;26.00;21.00;;;;;;;17.93;74.10;101617.81;3592560;39;20334;-61
2022/07/24 04:34:25;;;;;;;24.85;21.85;;;;;;;17.95;73.99;101615.81;3593820;39;20062;-61
2022/07/24 04:36:50;;;;;;;26.90;22.42;;;;;;;17.94;74.57;101619.53;3594276;39;20460;-61
2022/07/24 04:39:16;;;;;;;26.85;22.52;;;;;;;17.95;74.77;101619.41;3594643;39;20051;-61
2022/07/24 04:41:42;;;;;;;25.00;22.27;;;;;;;17.99;75.17;101622.75;3593967;39;20469;-61
2022/07/24 04:44:08;;;;;;;25.70;22.50;;;;;;;18.01;74.82;101637.06;3593798;39;20306;-61
2022/07/24 04:46:33;;;;;;;25.98;22.92;;;;;;;18.04;74.90;101631.38;3583319;39;20071;-62
2022/07/24 04:49:00;;;;;;;27.50;24.38;;;;;;;18.03;74.50;101619.63;3594696;39;20417;-61
2022/07/24 04:51:26;;;;;;;27.40;23.25;;;;;;;17.91;75.27;101611.59;3593351;39;20419;-62
2022/07/24 04:53:54;;;;;;;29.08;24.80;;;;;;;18.02;74.84;101622.50;3595512;39;20057;-62
2022/07/24 04:56:21;;;;;;;29.42;25.85;;;;;;;18.06;74.72;101630.28;3593777;39;20062;-61
2022/07/24 04:58:47;;;;;;;31.10;25.85;;;;;;;18.06;74.94;101618.53;3592962;39;20099;-62
2022/07/24 05:01:13;;;;;;;27.98;24.98;;;;;;;18.10;75.25;101625.44;3592596;39;20302;-62
2022/07/24 05:03:39;;;;;;;31.60;26.42;;;;;;;18.14;74.86;101613.34;3592114;39;20066;-61
2022/07/24 05:06:05;;;;;;;30.02;26.27;;;;;;;18.12;74.85;101618.03;3592818;39;20059;-61
2022/07/24 05:08:31;;;;;;;30.23;26.75;;;;;;;18.18;74.98;101625.72;3584134;39;20128;-61
2022/07/24 05:10:56;;;;;;;29.85;26.33;;;;;;;18.20;74.79;101615.53;3584897;39;20120;-62
2022/07/24 05:13:22;;;;;;;32.15;26.98;;;;;;;18.22;75.60;101616.28;3593629;39;20063;-61
2022/07/24 05:15:47;;;;;;;28.75;25.23;;;;;;;18.24;75.45;101624.34;3593129;39;20174;-65
2022/07/24 05:18:13;;;;;;;29.95;26.05;;;;;;;18.29;75.34;101614.78;3594366;39;20267;-61
2022/07/24 05:20:39;;;;;;;29.65;26.13;;;;;;;18.33;74.44;101624.47;3594538;39;20083;-61
2022/07/24 05:23:04;;;;;;;31.88;26.05;;;;;;;17.62;74.97;101501.44;3595323;39;20063;-62
2022/07/24 05:25:30;;;;;;;32.55;27.70;;;;;;;18.37;74.33;101626.94;3594215;39;20070;-61
2022/07/24 05:27:56;;;;;;;31.63;26.90;;;;;;;18.38;75.13;101634.09;3594020;39;20051;-61
2022/07/24 05:30:21;;;;;;;30.42;26.30;;;;;;;18.45;75.36;101629.88;3594547;39;20297;-61
2022/07/24 05:32:47;;;;;;;33.83;28.38;;;;;;;18.45;74.31;101625.28;3592682;39;20054;-61
2022/07/24 05:35:12;;;;;;;30.63;27.20;;;;;;;18.52;73.88;101625.66;3591468;39;20112;-61
2022/07/24 05:37:38;;;;;;;34.58;26.65;;;;;;;18.59;74.53;101639.66;3592079;39;20059;-61
2022/07/24 05:40:05;;;;;;;31.83;26.85;;;;;;;18.67;73.67;101639.84;3591771;39;20052;-61
2022/07/24 05:42:32;;;;;;;31.45;26.55;;;;;;;18.72;73.50;101643.06;3591095;39;20060;-61
2022/07/24 05:44:57;;;;;;;30.80;26.98;;;;;;;18.50;73.23;101598.56;3585991;39;20055;-61
2022/07/24 05:47:23;;;;;;;34.85;28.33;;;;;;;18.73;73.40;101640.25;3593469;39;20377;-61
2022/07/24 05:49:48;;;;;;;30.20;26.52;;;;;;;18.85;73.29;101632.06;3595141;39;20070;-61
2022/07/24 05:52:14;;;;;;;34.55;27.08;;;;;;;18.91;72.47;101639.72;3593121;39;20059;-62
2022/07/24 05:54:39;;;;;;;31.40;27.08;;;;;;;19.00;72.49;101641.66;3593662;39;20051;-62
2022/07/24 05:57:05;;;;;;;30.85;26.13;;;;;;;19.10;71.33;101637.16;3594003;39;20047;-61
2022/07/24 05:59:31;;;;;;;30.48;25.40;;;;;;;19.17;71.38;101632.91;3592662;39;20687;-61
2022/07/24 06:01:57;;;;;;;29.88;23.98;;;;;;;19.32;70.48;101636.19;3591802;39;20068;-61
2022/07/24 06:04:22;;;;;;;27.52;22.23;;;;;;;19.40;68.82;101632.78;3591776;39;20563;-61
2022/07/24 06:06:48;;;;;;;29.38;23.10;;;;;;;19.45;69.06;101638.72;3593188;39;20067;-63
2022/07/24 06:09:13;;;;;;;25.63;21.55;;;;;;;19.54;68.04;101640.66;3593043;39;20410;-61
2022/07/24 06:11:39;;;;;;;27.38;22.20;;;;;;;19.62;68.06;101651.75;3590439;39;20063;-61
2022/07/24 06:14:05;;;;;;;25.42;21.15;;;;;;;19.70;67.68;101646.53;3594748;39;20070;-63
2022/07/24 06:16:30;;;;;;;26.33;20.67;;;;;;;19.79;66.70;101644.88;3592639;39;20079;-61
2022/07/24 06:18:56;;;;;;;25.55;21.23;;;;;;;19.53;66.37;101586.22;3593168;39;20060;-61
2022/07/24 06:21:21;;;;;;;25.65;20.85;;;;;;;19.98;66.47;101648.66;3591549;39;20063;-62
2022/07/24 06:23:47;;;;;;;24.13;20.52;;;;;;;20.06;66.11;101663.38;3591927;39;20410;-61
2022/07/24 06:26:13;;;;;;;22.13;19.38;;;;;;;20.17;65.53;101649.66;3591554;39;20047;-62
2022/07/24 06:28:38;;;;;;;24.95;19.58;;;;;;;20.29;65.28;101649.53;3591317;39;20303;-61
2022/07/24 06:31:04;;;;;;;23.30;19.17;;;;;;;20.38;64.38;101637.78;3592889;39;20074;-62
2022/07/24 06:33:30;;;;;;;23.08;18.67;;;;;;;20.48;63.37;101646.88;3590977;39;20501;-62
2022/07/24 06:35:55;;;;;;;25.38;18.90;;;;;;;20.61;63.54;101650.25;3591810;39;20512;-63
2022/07/24 06:38:21;;;;;;;26.13;18.92;;;;;;;20.74;63.38;101655.47;3592163;39;20421;-64
2022/07/24 06:40:46;;;;;;;21.60;18.92;;;;;;;20.81;63.43;101658.50;3591910;39;20059;-63
2022/07/24 06:43:12;;;;;;;22.50;18.75;;;;;;;20.97;62.83;101658.81;3588968;39;20056;-63
2022/07/24 06:45:38;;;;;;;21.10;17.90;;;;;;;21.08;62.39;101650.44;3593398;39;20058;-64
2022/07/24 06:48:04;;;;;;;22.08;16.70;;;;;;;21.28;62.15;101644.97;3594944;39;20063;-63
2022/07/24 06:50:30;;;;;;;18.52;15.40;;;;;;;21.45;61.24;101644.28;3593289;39;20051;-63
2022/07/24 06:52:56;;;;;;;20.73;15.55;;;;;;;21.63;60.31;101643.53;3594146;39;20128;-64
2022/07/24 06:55:21;;;;;;;19.88;15.95;;;;;;;21.78;59.28;101653.88;3593840;39;20129;-64
2022/07/24 06:57:47;;;;;;;17.77;14.73;;;;;;;21.95;58.91;101646.78;3593852;39;20059;-64
2022/07/24 07:00:14;;;;;;;15.55;13.60;;;;;;;22.12;58.37;101649.75;3593983;39;20085;-64
2022/07/24 07:02:40;;;;;;;16.15;13.43;;;;;;;22.21;56.83;101637.91;3593696;39;20063;-64
2022/07/24 07:05:08;;;;;;;13.75;11.73;;;;;;;22.34;57.35;101641.16;3596492;39;20074;-63
2022/07/24 07:07:36;;;;;;;13.00;10.65;;;;;;;22.30;56.15;101606.03;3593639;39;20456;-64
2022/07/24 07:10:02;;;;;;;13.75;11.50;;;;;;;22.65;55.62;101636.25;3595171;39;20063;-63
2022/07/24 07:12:28;;;;;;;13.75;10.82;;;;;;;22.83;55.64;101632.66;3595716;39;20099;-63
2022/07/24 07:14:53;;;;;;;12.32;9.70;;;;;;;23.02;54.61;101637.16;3594621;39;20047;-64
2022/07/24 07:17:19;;;;;;;9.77;8.77;;;;;;;23.08;52.83;101631.03;3595692;39;20283;-63
2022/07/24 07:19:44;;;;;;;10.50;7.55;;;;;;;23.22;52.01;101649.72;3593656;39;20070;-64
2022/07/24 07:22:11;;;;;;;12.82;7.50;;;;;;;23.11;51.75;101603.31;3594553;39;20061;-64
2022/07/24 07:24:37;;;;;;;7.65;6.10;;;;;;;23.58;50.33;101649.66;3595271;39;20076;-64
2022/07/24 07:27:03;;;;;;;7.40;5.50;;;;;;;23.52;49.26;101633.81;3596397;39;20064;-64
2022/07/24 07:29:28;;;;;;;6.25;5.00;;;;;;;23.77;49.06;101649.47;3593240;39;20077;-63
2022/07/24 07:31:55;;;;;;;6.65;4.90;;;;;;;23.91;48.34;101658.16;3593391;39;20071;-64
2022/07/24 07:34:20;;;;;;;7.53;5.32;;;;;;;24.01;47.97;101646.03;3592979;39;20148;-64
2022/07/24 07:36:46;;;;;;;6.88;5.00;;;;;;;23.96;47.52;101625.56;3595151;39;20401;-63
2022/07/24 07:39:12;;;;;;;5.53;4.20;;;;;;;24.24;46.82;101643.59;3594759;39;20514;-63
2022/07/24 07:41:37;;;;;;;6.32;4.10;;;;;;;24.32;45.75;101645.50;3594901;39;20431;-65
2022/07/24 07:44:04;;;;;;;5.78;4.15;;;;;;;24.38;44.92;101642.09;3595932;39;20067;-64
2022/07/24 07:46:30;;;;;;;5.25;3.78;;;;;;;24.57;45.91;101643.75;3594494;39;21437;-64
2022/07/24 07:48:55;;;;;;;4.93;3.55;;;;;;;24.00;44.38;101550.06;3594505;39;20047;-64
2022/07/24 07:51:21;;;;;;;3.63;3.22;;;;;;;24.75;45.19;101644.47;3592748;39;20067;-64
2022/07/24 07:53:47;;;;;;;5.95;3.28;;;;;;;25.01;44.47;101646.25;3594780;39;20271;-64
2022/07/24 07:56:13;;;;;;;5.80;3.45;;;;;;;25.13;43.02;101642.19;3593843;39;20056;-64
2022/07/24 07:58:38;;;;;;;3.38;3.05;;;;;;;25.24;43.94;101633.56;3585289;39;20055;-64
2022/07/24 08:01:04;;;;;;;3.67;2.85;;;;;;;25.24;43.56;101641.84;3593505;39;20067;-64
2022/07/24 08:03:29;;;;;;;4.15;2.90;;;;;;;25.26;41.16;101641.66;3591696;39;20052;-65
2022/07/24 08:05:55;;;;;;;3.15;2.50;;;;;;;25.39;40.54;101632.91;3596328;39;20086;-64
2022/07/24 08:08:21;;;;;;;3.80;2.42;;;;;;;25.50;40.17;101626.16;3594339;39;20059;-63
2022/07/24 08:10:47;;;;;;;3.90;2.47;;;;;;;25.73;41.21;101634.59;3595892;39;20527;-63
2022/07/24 08:13:14;;;;;;;2.95;2.20;;;;;;;25.83;40.71;101630.66;3594584;39;20082;-64
2022/07/24 08:15:41;;;;;;;2.30;2.10;;;;;;;26.02;39.60;101632.16;3595155;39;20039;-64
2022/07/24 08:18:07;;;;;;;2.08;1.95;;;;;;;26.19;39.42;101632.94;3593850;39;20184;-64
2022/07/24 08:20:33;;;;;;;2.25;2.10;;;;;;;26.39;40.45;101636.16;3593671;39;20456;-64
2022/07/24 08:22:59;;;;;;;2.08;1.90;;;;;;;26.50;39.42;101635.78;3595574;39;20055;-64
2022/07/24 08:25:26;;;;;;;3.35;2.20;;;;;;;26.55;39.59;101632.50;3589660;39;20060;-64
2022/07/24 08:27:51;;;;;;;2.40;2.05;;;;;;;26.60;38.65;101633.66;3595314;39;20112;-64
2022/07/24 08:30:17;;;;;;;2.50;2.30;;;;;;;26.60;38.13;101641.06;3596278;39;20059;-64
2022/07/24 08:32:44;;;;;;;2.28;2.17;;;;;;;26.53;37.94;101615.25;3592822;39;20288;-64
2022/07/24 08:35:11;;;;;;;2.08;1.98;;;;;;;26.79;38.36;101648.03;3594241;39;20092;-64
2022/07/24 08:37:39;;;;;;;2.58;2.35;;;;;;;26.92;38.37;101640.00;3584887;39;20056;-65
2022/07/24 08:40:08;;;;;;;6.43;2.45;;;;;;;27.09;38.99;101644.41;3597493;39;20063;-65
2022/07/24 08:42:35;;;;;;;2.60;2.30;;;;;;;27.22;38.06;101640.19;3595838;39;20058;-65
2022/07/24 08:45:03;;;;;;;4.38;2.50;;;;;;;27.35;38.62;101634.91;3591117;39;20066;-66
2022/07/24 08:47:31;;;;;;;3.10;2.40;;;;;;;27.57;39.64;101629.53;3591845;39;20091;-65
2022/07/24 08:49:59;;;;;;;2.53;2.30;;;;;;;27.80;38.05;101615.69;3595460;39;20382;-65
2022/07/24 08:52:26;;;;;;;2.60;2.40;;;;;;;28.07;38.18;101625.22;3594838;39;20055;-65
2022/07/24 08:54:53;;;;;;;2.20;2.00;;;;;;;28.15;37.84;101611.31;3595787;39;20418;-65
2022/07/24 08:57:20;;;;;;;2.60;2.40;;;;;;;28.22;37.18;101607.56;3594689;39;20103;-65
2022/07/24 08:59:46;;;;;;;2.33;2.22;;;;;;;28.40;37.10;101621.03;3592902;39;20056;-65
2022/07/24 09:02:11;;;;;;;3.20;2.33;;;;;;;28.54;36.76;101629.50;3595195;39;20051;-65
2022/07/24 09:04:44;;;;;;;3.45;2.55;;;;;;;28.61;37.32;101630.47;3595785;39;20416;-65
2022/07/24 09:07:19;;;;;;;4.80;2.60;;;;;;;28.75;37.27;101626.78;3595848;39;20137;-65
2022/07/24 09:10:10;;;;;;;4.75;2.70;;;;;;;28.91;37.28;101626.53;3594998;39;20051;-65
2022/07/24 09:12:40;;;;;;;4.10;2.60;;;;;;;28.95;36.60;101617.84;3593801;39;20275;-65
2022/07/24 09:15:20;;;;;;;8.02;5.70;;;;;;;29.11;36.32;101626.78;3597554;39;20071;-65
2022/07/24 09:17:59;;;;;;;4.57;2.72;;;;;;;29.01;37.06;101623.47;3595079;39;20062;-65
2022/07/24 09:20:28;;;;;;;4.47;2.72;;;;;;;28.91;37.39;101601.63;3592079;39;20195;-64
2022/07/24 09:22:58;;;;;;;2.50;2.30;;;;;;;29.05;35.79;101610.09;3594686;39;20051;-64
2022/07/24 09:25:28;;;;;;;2.75;2.45;;;;;;;29.14;36.55;101618.06;3593525;39;20374;-64
2022/07/24 09:28:00;;;;;;;2.58;2.28;;;;;;;29.17;35.80;101608.50;3590602;39;20130;-65
2022/07/24 09:30:42;;;;;;;4.13;2.63;;;;;;;29.06;36.85;101612.69;3580397;39;20056;-65
2022/07/24 09:33:17;;;;;;;3.67;2.72;;;;;;;29.06;36.97;101600.75;3591861;39;20125;-65
2022/07/24 09:35:48;;;;;;;2.40;2.20;;;;;;;29.25;37.87;101597.31;3590560;39;20354;-64
2022/07/24 09:38:22;;;;;;;2.17;2.00;;;;;;;29.31;36.98;101584.59;3585181;39;20055;-64
2022/07/24 09:40:53;;;;;;;2.40;2.20;;;;;;;29.39;36.25;101595.50;3597542;39;20120;-65
2022/07/24 09:43:29;;;;;;;2.75;2.53;;;;;;;29.49;35.87;101592.38;3591809;39;20117;-63
2022/07/24 09:46:10;;;;;;;2.58;2.38;;;;;;;29.61;36.32;101588.03;3594650;39;20314;-63
2022/07/24 09:48:57;;;;;;;2.35;2.15;;;;;;;29.72;36.13;101589.38;3595170;39;20051;-65
2022/07/24 09:51:26;;;;;;;4.05;2.40;;;;;;;29.73;37.15;101586.41;3592653;39;20055;-62
2022/07/24 09:53:57;;;;;;;2.70;2.40;;;;;;;29.74;35.63;101570.63;3584240;39;20055;-62
2022/07/24 09:56:24;;;;;;;3.45;2.40;;;;;;;29.99;35.72;101582.09;3595584;39;20052;-65
2022/07/24 09:58:53;;;;;;;2.72;2.50;;;;;;;30.10;34.90;101587.06;3594915;39;20413;-65
2022/07/24 10:01:26;;;;;;;2.65;2.30;;;;;;;30.18;34.44;101581.34;3596724;39;20054;-65
2022/07/24 10:04:00;;;;;;;2.33;2.10;;;;;;;30.34;34.56;101580.16;3594862;39;20560;-64
2022/07/24 10:06:27;;;;;;;3.08;2.50;;;;;;;30.46;34.68;101583.19;3584197;39;20052;-64
2022/07/24 10:08:55;;;;;;;2.85;2.33;;;;;;;30.60;34.58;101584.09;3594304;39;20365;-64
2022/07/24 10:11:21;;;;;;;2.47;2.28;;;;;;;30.55;34.10;101545.88;3590710;39;20055;-64
2022/07/24 10:13:48;;;;;;;2.47;2.28;;;;;;;30.84;33.59;101566.03;3592780;39;20052;-65
2022/07/24 10:16:14;;;;;;;2.40;2.20;;;;;;;30.97;33.64;101577.16;3576681;39;20284;-64
2022/07/24 10:19:03;;;;;;;2.40;2.20;;;;;;;30.56;32.77;101480.97;3591815;39;20562;-65
2022/07/24 10:21:35;;;;;;;2.20;2.10;;;;;;;30.87;33.85;101571.19;3594833;39;20111;-64
2022/07/24 10:24:06;;;;;;;3.45;2.20;;;;;;;30.75;32.96;101573.69;3592734;39;20725;-65
2022/07/24 10:26:50;;;;;;;4.18;2.10;;;;;;;30.89;34.80;101574.56;3594358;39;20043;-64
2022/07/24 10:29:24;;;;;;;2.47;1.98;;;;;;;30.82;33.20;101557.06;3594532;39;20055;-65
2022/07/24 10:31:58;;;;;;;2.55;2.35;;;;;;;30.92;33.70;101563.94;3592419;39;20052;-65
2022/07/24 10:34:26;;;;;;;3.03;2.38;;;;;;;31.02;32.80;101559.84;3596490;39;20284;-64
2022/07/24 10:37:11;;;;;;;2.85;2.55;;;;;;;31.28;33.35;101551.56;3595398;39;20716;-65
2022/07/24 10:40:23;;;;;;;2.95;2.10;;;;;;;31.35;31.91;101551.56;3594675;39;20113;-65
2022/07/24 10:43:08;;;;;;;4.53;2.33;;;;;;;31.30;32.90;101549.38;3584049;39;20406;-63
2022/07/24 10:45:53;;;;;;;2.33;2.13;;;;;;;31.39;31.54;101552.84;3596017;39;20059;-65
2022/07/24 10:48:22;;;;;;;2.25;2.13;;;;;;;31.43;32.33;101541.09;3595180;39;20051;-65
2022/07/24 10:50:57;;;;;;;4.05;3.15;;;;;;;31.50;32.51;101543.88;3596264;39;20387;-64
2022/07/24 10:53:31;;;;;;;3.00;2.72;;;;;;;31.72;31.70;101540.81;3594159;39;21000;-65
2022/07/24 10:56:38;;;;;;;2.67;2.20;;;;;;;31.78;31.60;101534.38;3593092;39;20059;-65
2022/07/24 10:59:12;;;;;;;4.05;2.70;;;;;;;31.85;32.72;101532.47;3594869;39;20063;-66
2022/07/24 11:01:50;;;;;;;3.10;2.25;;;;;;;31.84;32.08;101523.25;3596924;39;20070;-65
2022/07/24 11:04:19;;;;;;;3.15;2.85;;;;;;;31.98;32.45;101529.66;3595560;39;20059;-65
2022/07/24 11:06:47;;;;;;;2.60;2.40;;;;;;;31.97;30.83;101527.97;3593219;39;20713;-65
2022/07/24 11:09:15;;;;;;;4.72;3.50;;;;;;;32.16;31.86;101539.19;3597645;39;20052;-65
2022/07/24 11:12:01;;;;;;;2.25;2.03;;;;;;;32.30;30.01;101532.50;3594023;39;20113;-65
2022/07/24 11:14:49;;;;;;;2.60;2.40;;;;;;;32.51;31.00;101537.78;3585912;39;20398;-65
2022/07/24 11:17:43;;;;;;;2.65;2.20;;;;;;;32.35;29.99;101527.13;3594108;39;20054;-65
2022/07/24 11:20:16;;;;;;;3.92;2.70;;;;;;;32.37;31.04;101525.81;3588731;39;20056;-66
2022/07/24 11:22:49;;;;;;;3.13;2.53;;;;;;;32.34;30.48;101531.84;3591767;39;20315;-65